Saga Sapphire — 9HOF8 — position and weather

sailwx.info

Track history (hours):
 
Tides and Currents Weather Stations Pressure Air Temp Water Temp Dewpoint Dewpoint Depression Visibility Wind Speed Wind Dir Waves Ship Positions

Saga Sapphire

Last reported at 2014-Sep-03 01:31 UTC. Time now 2014-Sep-03 04:59 UTC.
Position N 53°31' E 003°00'.

Length 200 m; draft 8.4 m.

Type: Passenger vessel. MMSI: 256208000.

Date/timePositionNaut miles runAvg speedWind from/ knotsBaromVisibWave heightAir tempDewpointWater temp
2014-Sep-03 01:31N 53°31' E 003°00'1326.0
2014-Sep-03 01:00N 53°18' E 002°54'1711.9 080 / 81025.310.8 0.516.815.1
2014-Sep-02 23:33N 53°03' E 002°41'1615.9
2014-Sep-02 22:32N 52°47' E 002°37'1616.7
2014-Sep-02 21:33N 52°31' E 002°30'1717.2
2014-Sep-02 20:34N 52°15' E 002°21'1717.5
2014-Sep-02 19:34N 51°58' E 002°13'1817.5
2014-Sep-02 18:33N 51°42' E 002°03'1717.3
2014-Sep-02 17:34N 51°27' E 001°48'1716.6
2014-Sep-02 16:33N 51°12' E 001°36'8 0.7
2014-Sep-02 05:34N 51°07' E 001°26'1211.9
2014-Sep-02 04:33N 50°55' E 001°26'1814.9
2014-Sep-02 03:19N 50°39' E 001°13'1215.2
2014-Sep-02 02:34N 50°31' E 000°58'1716.9
2014-Sep-02 01:34N 50°27' E 000°33'12015.9
2014-Sep-01 18:00N 49°30' W 002°12'   350 / 101021.810.8 0.517.015.3
2014-Aug-30 01:00N 52°06' W 005°42'8512.1 270 / 241011.910.8 0.514.912.513.0
2014-Aug-29 18:00N 53°24' W 004°48'2517.4 220 / 261005.910.8 1.016.214.115.0
2014-Aug-29 16:32N 53°33' W 004°08'1616.8
2014-Aug-29 15:34N 53°33' W 003°41'1413.8
2014-Aug-29 14:33N 53°32' W 003°18'13 9.4
2014-Aug-29 13:12N 53°24' W 003°00'0 0.0
2014-Aug-29 09:21N 53°24' W 003°00'0 0.0
2014-Aug-29 06:33N 53°24' W 003°00'4 3.5
2014-Aug-29 05:33N 53°28' W 003°03'7 7.4
2014-Aug-29 04:33N 53°31' W 003°14'1110.2
2014-Aug-29 03:30N 53°31' W 003°32'9510.0
2014-Aug-28 18:00N 52°42' W 005°48'88 4.3 180 / 241004.710.8 1.016.512.915.0
2014-Aug-27 21:33N 54°08' W 005°15'1313.5
2014-Aug-27 20:33N 54°20' W 005°04'1515.3
2014-Aug-27 19:34N 54°34' W 005°15'1413.8
2014-Aug-27 18:34N 54°44' W 005°32'1110.6
2014-Aug-27 17:34N 54°40' W 005°50'4 0.3
2014-Aug-27 06:30N 54°38' W 005°54'6 6.2
2014-Aug-27 05:34N 54°42' W 005°46'1211.8
2014-Aug-27 04:33N 54°52' W 005°36'1313.1
2014-Aug-27 03:33N 55°04' W 005°44'1212.4
2014-Aug-27 02:33N 55°14' W 005°58'1212.2
2014-Aug-27 01:34N 55°22' W 006°14'1414.1
2014-Aug-27 00:34N 55°27' W 006°37'1615.7
2014-Aug-26 23:34N 55°37' W 006°59'8615.4
2014-Aug-26 18:00N 54°42' W 008°54'612.5 090 / 101012.210.8 0.517.8 9.7
2014-Aug-26 17:29N 54°37' W 008°48'1212.6
2014-Aug-26 16:33N 54°36' W 008°28'2 0.3
2014-Aug-26 09:19N 54°38' W 008°26'0 0.0
2014-Aug-26 07:07N 54°38' W 008°26'0 0.0
2014-Aug-26 06:29N 54°38' W 008°26'6 6.0
2014-Aug-26 05:33N 54°34' W 008°34'3814.7
2014-Aug-26 03:00N 55°12' W 008°36'56 7.6 090 / 191006.010.8 0.514.3 9.9
2014-Aug-25 19:33N 55°31' W 007°03'10 9.5
2014-Aug-25 18:33N 55°32' W 006°46'610.9
2014-Aug-25 18:00N 55°30' W 006°36'511.6 140 / 121004.110.8 0.515.811.614.0
2014-Aug-25 17:33N 55°33' W 006°29'1413.8
2014-Aug-25 16:33N 55°34' W 006°04'14411.0
2014-Aug-25 03:33N 57°57' W 006°11'2239.5
2014-Aug-25 03:00N 58°12' W 006°42'2761.5 140 / 101013.810.8 0.511.3 7.1
2014-Aug-25 02:33N 58°08' W 005°52'1615.7
2014-Aug-25 01:33N 58°20' W 005°33'4715.5
2014-Aug-24 22:33N 58°51' W 004°24'1514.9
2014-Aug-24 21:33N 58°58' W 003°60'1514.5
2014-Aug-24 20:34N 59°06' W 003°36'1414.4
2014-Aug-24 19:33N 59°12' W 003°10'1110.7
2014-Aug-24 18:33N 59°09' W 002°50'8 8.4
2014-Aug-24 17:33N 59°01' W 002°52'3 3.0
2014-Aug-24 16:31N 58°60' W 002°58'0 0.0
2014-Aug-24 15:31N 58°60' W 002°58'0 0.0
2014-Aug-24 14:31N 58°60' W 002°58'0 0.0
2014-Aug-24 13:31N 58°60' W 002°58'0 0.0
2014-Aug-24 12:31N 58°60' W 002°58'0 0.0
2014-Aug-24 11:32N 58°60' W 002°58'0 0.0
2014-Aug-24 10:32N 58°60' W 002°58'0 0.0
2014-Aug-24 09:32N 58°60' W 002°58'0 0.0
2014-Aug-24 08:32N 58°60' W 002°58'0 0.0
2014-Aug-24 07:31N 58°60' W 002°58'0 0.1
2014-Aug-24 06:34N 59°00' W 002°58'7 6.6
2014-Aug-24 05:34N 59°00' W 002°45'1111.3
2014-Aug-24 04:33N 58°50' W 002°34'2647.4
2014-Aug-24 04:00N 58°24' W 002°36'   320 / 151014.210.8 1.010.0 6.8
Track history (hours):
 
Tides and Currents Weather Stations Pressure Air Temp Water Temp Dewpoint Dewpoint Depression Visibility Wind Speed Wind Dir Waves Ship Positions

Saga Sapphire

Last reported at 2014-Sep-03 01:31 UTC. Time now 2014-Sep-03 04:59 UTC.
Position N 53°31' E 003°00'.

Length 200 m; draft 8.4 m.

Type: Passenger vessel. MMSI: 256208000.

Date/timePositionNaut miles runAvg speedWind from/ knotsBaromVisibWave heightAir tempDewpointWater temp
2014-Sep-03 01:31N 53°31' E 003°00'1326.0
2014-Sep-03 01:00N 53°18' E 002°54'1711.9 080 / 81025.310.8 0.516.815.1
2014-Sep-02 23:33N 53°03' E 002°41'1615.9
2014-Sep-02 22:32N 52°47' E 002°37'1616.7
2014-Sep-02 21:33N 52°31' E 002°30'1717.2
2014-Sep-02 20:34N 52°15' E 002°21'1717.5
2014-Sep-02 19:34N 51°58' E 002°13'1817.5
2014-Sep-02 18:33N 51°42' E 002°03'1717.3
2014-Sep-02 17:34N 51°27' E 001°48'1716.6
2014-Sep-02 16:33N 51°12' E 001°36'8 0.7
2014-Sep-02 05:34N 51°07' E 001°26'1211.9
2014-Sep-02 04:33N 50°55' E 001°26'1814.9
2014-Sep-02 03:19N 50°39' E 001°13'1215.2
2014-Sep-02 02:34N 50°31' E 000°58'1716.9
2014-Sep-02 01:34N 50°27' E 000°33'12015.9
2014-Sep-01 18:00N 49°30' W 002°12'   350 / 101021.810.8 0.517.015.3
2014-Aug-30 01:00N 52°06' W 005°42'8512.1 270 / 241011.910.8 0.514.912.513.0
2014-Aug-29 18:00N 53°24' W 004°48'2517.4 220 / 261005.910.8 1.016.214.115.0
2014-Aug-29 16:32N 53°33' W 004°08'1616.8
2014-Aug-29 15:34N 53°33' W 003°41'1413.8
2014-Aug-29 14:33N 53°32' W 003°18'13 9.4
2014-Aug-29 13:12N 53°24' W 003°00'0 0.0
2014-Aug-29 09:21N 53°24' W 003°00'0 0.0
2014-Aug-29 06:33N 53°24' W 003°00'4 3.5
2014-Aug-29 05:33N 53°28' W 003°03'7 7.4
2014-Aug-29 04:33N 53°31' W 003°14'1110.2
2014-Aug-29 03:30N 53°31' W 003°32'9510.0
2014-Aug-28 18:00N 52°42' W 005°48'88 4.3 180 / 241004.710.8 1.016.512.915.0
2014-Aug-27 21:33N 54°08' W 005°15'1313.5
2014-Aug-27 20:33N 54°20' W 005°04'1515.3
2014-Aug-27 19:34N 54°34' W 005°15'1413.8
2014-Aug-27 18:34N 54°44' W 005°32'1110.6
2014-Aug-27 17:34N 54°40' W 005°50'4 0.3
2014-Aug-27 06:30N 54°38' W 005°54'6 6.2
2014-Aug-27 05:34N 54°42' W 005°46'1211.8
2014-Aug-27 04:33N 54°52' W 005°36'1313.1
2014-Aug-27 03:33N 55°04' W 005°44'1212.4
2014-Aug-27 02:33N 55°14' W 005°58'1212.2
2014-Aug-27 01:34N 55°22' W 006°14'1414.1
2014-Aug-27 00:34N 55°27' W 006°37'1615.7
2014-Aug-26 23:34N 55°37' W 006°59'8615.4
2014-Aug-26 18:00N 54°42' W 008°54'612.5 090 / 101012.210.8 0.517.8 9.7
2014-Aug-26 17:29N 54°37' W 008°48'1212.6
2014-Aug-26 16:33N 54°36' W 008°28'2 0.3
2014-Aug-26 09:19N 54°38' W 008°26'0 0.0
2014-Aug-26 07:07N 54°38' W 008°26'0 0.0
2014-Aug-26 06:29N 54°38' W 008°26'6 6.0
2014-Aug-26 05:33N 54°34' W 008°34'3814.7
2014-Aug-26 03:00N 55°12' W 008°36'56 7.6 090 / 191006.010.8 0.514.3 9.9
2014-Aug-25 19:33N 55°31' W 007°03'10 9.5
2014-Aug-25 18:33N 55°32' W 006°46'610.9
2014-Aug-25 18:00N 55°30' W 006°36'511.6 140 / 121004.110.8 0.515.811.614.0
2014-Aug-25 17:33N 55°33' W 006°29'1413.8
2014-Aug-25 16:33N 55°34' W 006°04'14411.0
2014-Aug-25 03:33N 57°57' W 006°11'2239.5
2014-Aug-25 03:00N 58°12' W 006°42'2761.5 140 / 101013.810.8 0.511.3 7.1
2014-Aug-25 02:33N 58°08' W 005°52'1615.7
2014-Aug-25 01:33N 58°20' W 005°33'4715.5
2014-Aug-24 22:33N 58°51' W 004°24'1514.9
2014-Aug-24 21:33N 58°58' W 003°60'1514.5
2014-Aug-24 20:34N 59°06' W 003°36'1414.4
2014-Aug-24 19:33N 59°12' W 003°10'1110.7
2014-Aug-24 18:33N 59°09' W 002°50'8 8.4
2014-Aug-24 17:33N 59°01' W 002°52'3 3.0
2014-Aug-24 16:31N 58°60' W 002°58'0 0.0
2014-Aug-24 15:31N 58°60' W 002°58'0 0.0
2014-Aug-24 14:31N 58°60' W 002°58'0 0.0
2014-Aug-24 13:31N 58°60' W 002°58'0 0.0
2014-Aug-24 12:31N 58°60' W 002°58'0 0.0
2014-Aug-24 11:32N 58°60' W 002°58'0 0.0
2014-Aug-24 10:32N 58°60' W 002°58'0 0.0
2014-Aug-24 09:32N 58°60' W 002°58'0 0.0
2014-Aug-24 08:32N 58°60' W 002°58'0 0.0
2014-Aug-24 07:31N 58°60' W 002°58'0 0.1
2014-Aug-24 06:34N 59°00' W 002°58'7 6.6
2014-Aug-24 05:34N 59°00' W 002°45'1111.3
2014-Aug-24 04:33N 58°50' W 002°34'2647.4
2014-Aug-24 04:00N 58°24' W 002°36'   320 / 151014.210.8 1.010.0 6.8

Dump ship's entire track history